createdAt,value
2022-08-21T00:00:27.960Z,100485.75
2022-08-21T00:03:02.235Z,100482.44
2022-08-21T00:05:31.175Z,100481.84
2022-08-21T00:07:59.220Z,100443.16
2022-08-21T00:10:28.215Z,100449.28
2022-08-21T00:12:56.772Z,100468.34
2022-08-21T00:15:28.184Z,100474.78
2022-08-21T00:17:56.486Z,100474.69
2022-08-21T00:20:26.159Z,100464.69
2022-08-21T00:22:54.295Z,100460.31
2022-08-21T00:25:24.977Z,100464.50
2022-08-21T00:27:54.480Z,100466.69
2022-08-21T00:30:24.627Z,100367.47
2022-08-21T00:32:53.761Z,100433.75
2022-08-21T00:35:24.780Z,100429.50
2022-08-21T00:37:54.412Z,100463.53
2022-08-21T00:40:32.594Z,100466.06
2022-08-21T00:43:00.711Z,100469.72
2022-08-21T00:45:29.606Z,100425.09
2022-08-21T00:47:58.199Z,100464.47
2022-08-21T00:50:31.457Z,100468.50
2022-08-21T00:53:03.771Z,100419.50
2022-08-21T00:55:33.818Z,100474.75
2022-08-21T00:58:06.888Z,100482.50
2022-08-21T01:00:40.883Z,100480.16
2022-08-21T01:03:13.469Z,100454.34
2022-08-21T01:05:42.958Z,100431.69
2022-08-21T01:08:12.752Z,100490.81
2022-08-21T01:10:42.145Z,100479.78
2022-08-21T01:13:12.313Z,100446.16
2022-08-21T01:15:44.457Z,100476.84
2022-08-21T01:18:15.720Z,100444.41
2022-08-21T01:20:46.469Z,100458.56
2022-08-21T01:23:16.413Z,100474.75
2022-08-21T01:25:44.535Z,100472.13
2022-08-21T01:28:16.114Z,100177.66
2022-08-21T01:30:47.193Z,100479.78
2022-08-21T01:33:15.334Z,100476.53
2022-08-21T01:35:43.411Z,100432.34
2022-08-21T01:38:11.387Z,100345.09
2022-08-21T01:40:40.837Z,100449.44
2022-08-21T01:43:08.849Z,100465.31
2022-08-21T01:45:36.936Z,100433.91
2022-08-21T01:48:05.667Z,100467.38
2022-08-21T01:50:33.927Z,100457.38
2022-08-21T01:53:01.940Z,100443.53
2022-08-21T01:55:29.999Z,100373.72
2022-08-21T01:58:01.308Z,100447.09
2022-08-21T02:00:29.350Z,100419.81
2022-08-21T02:02:57.827Z,100453.94
2022-08-21T02:05:26.298Z,100456.81
2022-08-21T02:07:56.437Z,100426.25
2022-08-21T02:10:28.520Z,100350.66
2022-08-21T02:12:57.812Z,100448.91
2022-08-21T02:15:27.312Z,100407.06
2022-08-21T02:17:58.092Z,100397.47
2022-08-21T02:20:29.551Z,100440.91
2022-08-21T02:22:57.953Z,100439.41
2022-08-21T02:25:28.101Z,100442.63
2022-08-21T02:27:57.359Z,100422.84
2022-08-21T02:30:28.894Z,100435.59
2022-08-21T02:32:58.041Z,100390.66
2022-08-21T02:35:26.264Z,100438.63
2022-08-21T02:37:56.293Z,100440.81
2022-08-21T02:40:27.085Z,100446.59
2022-08-21T02:42:55.586Z,100439.47
2022-08-21T02:45:23.643Z,100355.75
2022-08-21T02:47:55.006Z,100443.25
2022-08-21T02:50:28.246Z,100365.78
2022-08-21T02:52:57.754Z,100445.44
2022-08-21T02:55:28.688Z,100435.53
2022-08-21T02:57:58.239Z,100434.66
2022-08-21T03:00:30.375Z,100435.69
2022-08-21T03:03:00.231Z,100428.88
2022-08-21T03:05:32.006Z,100432.84
2022-08-21T03:08:01.618Z,100428.88
2022-08-21T03:10:31.866Z,100427.75
2022-08-21T03:13:01.149Z,100429.66
2022-08-21T03:15:29.423Z,100430.19
2022-08-21T03:17:59.179Z,100308.28
2022-08-21T03:20:29.595Z,100426.06
2022-08-21T03:22:57.732Z,100425.03
2022-08-21T03:25:38.882Z,100405.88
2022-08-21T03:28:13.178Z,100436.16
2022-08-21T03:30:42.575Z,100435.13
2022-08-21T03:33:14.944Z,100434.25
2022-08-21T03:35:44.608Z,100427.19
2022-08-21T03:38:14.149Z,100434.00
2022-08-21T03:40:42.333Z,100420.63
2022-08-21T03:43:11.308Z,100423.88
2022-08-21T03:45:40.338Z,100433.94
2022-08-21T03:48:10.119Z,100411.28
2022-08-21T03:50:42.620Z,100434.00
2022-08-21T03:53:17.639Z,100435.13
2022-08-21T03:55:46.474Z,100433.28
2022-08-21T03:58:16.736Z,100412.53
2022-08-21T04:00:46.160Z,100435.66
2022-08-21T04:03:14.463Z,100415.41
2022-08-21T04:05:46.373Z,100441.72
2022-08-21T04:08:16.071Z,100438.75
2022-08-21T04:10:45.835Z,100433.47
2022-08-21T04:13:15.578Z,100381.88
2022-08-21T04:15:43.808Z,100446.22
2022-08-21T04:18:12.036Z,100453.25
2022-08-21T04:20:40.899Z,100455.66
2022-08-21T04:23:10.266Z,100459.84
2022-08-21T04:25:38.375Z,100449.41
2022-08-21T04:28:06.623Z,100452.00
2022-08-21T04:30:35.121Z,100453.94
2022-08-21T04:33:03.995Z,100365.72
2022-08-21T04:35:32.402Z,100459.16
2022-08-21T04:38:00.618Z,100438.84
2022-08-21T04:40:30.979Z,100457.09
2022-08-21T04:43:05.057Z,100419.50
2022-08-21T04:45:35.690Z,100462.00
2022-08-21T04:48:08.689Z,100469.44
2022-08-21T04:50:43.891Z,100464.38
2022-08-21T04:53:16.571Z,100470.41
2022-08-21T04:55:46.897Z,100470.88
2022-08-21T04:58:17.155Z,100465.81
2022-08-21T05:00:46.290Z,100193.28
2022-08-21T05:03:15.408Z,100458.56
2022-08-21T05:05:44.578Z,100475.50
2022-08-21T05:08:16.668Z,100426.31
2022-08-21T05:10:46.660Z,100480.56
2022-08-21T05:13:15.374Z,100455.66
2022-08-21T05:15:43.953Z,100473.22
2022-08-21T05:18:12.313Z,100471.19
2022-08-21T05:20:40.659Z,100481.00
2022-08-21T05:23:10.366Z,100479.50
2022-08-21T05:25:38.720Z,100481.66
2022-08-21T05:28:08.473Z,100494.22
2022-08-21T05:30:37.665Z,100466.47
2022-08-21T05:33:08.203Z,100470.28
2022-08-21T05:35:37.085Z,100416.75
2022-08-21T05:38:06.050Z,100495.16
2022-08-21T05:40:45.213Z,100502.66
2022-08-21T05:43:15.160Z,100407.63
2022-08-21T05:45:44.352Z,100493.09
2022-08-21T05:48:15.180Z,100488.19
2022-08-21T05:50:44.047Z,100493.28
2022-08-21T05:53:12.331Z,100496.06
2022-08-21T05:55:45.599Z,100418.69
2022-08-21T05:58:17.509Z,100497.75
2022-08-21T06:00:48.489Z,100486.19
2022-08-21T06:03:19.275Z,100500.91
2022-08-21T06:05:47.826Z,100492.03
2022-08-21T06:08:17.182Z,100459.91
2022-08-21T06:10:45.707Z,100431.75
2022-08-21T06:13:16.168Z,100500.53
2022-08-21T06:15:44.205Z,100501.59
2022-08-21T06:18:12.413Z,100504.06
2022-08-21T06:20:40.991Z,100502.63
2022-08-21T06:23:09.551Z,100498.69
2022-08-21T06:25:37.831Z,100500.75
2022-08-21T06:28:08.155Z,100499.06
2022-08-21T06:30:39.491Z,100489.41
2022-08-21T06:33:08.133Z,100497.75
2022-08-21T06:35:37.189Z,100498.91
2022-08-21T06:38:09.371Z,100496.84
2022-08-21T06:40:37.501Z,100498.69
2022-08-21T06:43:15.819Z,100501.44
2022-08-21T06:45:46.715Z,100463.97
2022-08-21T06:48:18.551Z,100499.59
2022-08-21T06:50:47.772Z,100354.94
2022-08-21T06:53:19.150Z,100456.78
2022-08-21T06:55:47.701Z,100504.38
2022-08-21T06:58:16.290Z,100497.22
2022-08-21T07:00:49.799Z,100495.63
2022-08-21T07:03:26.633Z,100495.34
2022-08-21T07:05:55.381Z,100489.91
2022-08-21T07:08:23.434Z,100478.22
2022-08-21T07:10:51.742Z,100471.47
2022-08-21T07:13:20.415Z,100487.47
2022-08-21T07:15:50.182Z,100487.16
2022-08-21T07:18:18.563Z,100479.13
2022-08-21T07:20:47.614Z,100463.47
2022-08-21T07:23:24.724Z,100477.56
2022-08-21T07:25:52.940Z,100344.06
2022-08-21T07:28:21.244Z,100475.78
2022-08-21T07:30:54.276Z,100467.97
2022-08-21T07:33:22.449Z,100466.19
2022-08-21T07:35:50.371Z,100460.25
2022-08-21T07:38:19.352Z,100443.31
2022-08-21T07:40:47.800Z,100461.97
2022-08-21T07:43:17.781Z,100462.91
2022-08-21T07:45:46.092Z,100467.06
2022-08-21T07:48:15.424Z,100457.88
2022-08-21T07:50:44.189Z,100459.78
2022-08-21T07:53:12.266Z,100459.22
2022-08-21T07:55:40.728Z,100463.22
2022-08-21T07:58:08.952Z,100456.41
2022-08-21T08:00:37.129Z,100417.34
2022-08-21T08:03:05.500Z,100451.88
2022-08-21T08:05:38.129Z,100451.13
2022-08-21T08:08:06.340Z,100425.38
2022-08-21T08:10:34.370Z,100448.75
2022-08-21T08:13:02.486Z,100415.16
2022-08-21T08:15:32.440Z,100441.53
2022-08-21T08:18:03.734Z,100429.00
2022-08-21T08:20:31.697Z,100416.38
2022-08-21T08:23:01.473Z,100408.97
2022-08-21T08:25:32.799Z,100448.31
2022-08-21T08:28:16.740Z,100404.81
2022-08-21T08:30:46.313Z,100441.44
2022-08-21T08:33:14.897Z,100419.03
2022-08-21T08:35:43.344Z,100437.66
2022-08-21T08:38:12.694Z,100426.47
2022-08-21T08:40:46.969Z,100428.19
2022-08-21T08:43:15.523Z,100377.28
2022-08-21T08:45:51.035Z,100421.22
2022-08-21T08:48:34.237Z,100429.16
2022-08-21T08:51:04.949Z,100406.78
2022-08-21T08:53:38.674Z,100404.13
2022-08-21T08:56:07.973Z,100422.22
2022-08-21T08:58:39.841Z,100421.75
2022-08-21T09:01:12.366Z,100410.44
2022-08-21T09:03:41.995Z,100423.97
2022-08-21T09:06:16.051Z,100420.31
2022-08-21T09:08:56.506Z,100411.97
2022-08-21T09:11:30.025Z,100410.81
2022-08-21T09:14:11.116Z,100411.56
2022-08-21T09:16:48.493Z,100405.75
2022-08-21T09:19:31.311Z,100411.44
2022-08-21T09:22:06.669Z,100406.84
2022-08-21T09:24:51.952Z,100393.38
2022-08-21T09:27:23.032Z,100409.84
2022-08-21T09:29:56.176Z,100399.03
2022-08-21T09:32:37.202Z,100415.09
2022-08-21T09:35:09.537Z,100401.59
2022-08-21T09:37:49.959Z,100395.75
2022-08-21T09:40:27.616Z,100368.44
2022-08-21T09:42:58.004Z,100409.06
2022-08-21T09:45:26.747Z,100413.06
2022-08-21T09:47:55.021Z,100402.97
2022-08-21T09:50:28.954Z,100400.53
2022-08-21T09:53:01.091Z,100215.25
2022-08-21T09:55:54.019Z,100396.78
2022-08-21T09:58:22.730Z,100401.66
2022-08-21T10:01:00.237Z,100397.75
2022-08-21T10:03:29.362Z,100393.47
2022-08-21T10:06:00.686Z,100382.69
2022-08-21T10:08:30.568Z,100344.53
2022-08-21T10:11:06.630Z,100351.00
2022-08-21T10:13:49.169Z,100391.53
2022-08-21T10:16:33.817Z,100391.25
2022-08-21T10:19:21.905Z,100386.91
2022-08-21T10:22:02.473Z,100379.69
2022-08-21T10:24:35.465Z,100370.59
2022-08-21T10:27:18.307Z,100380.09
2022-08-21T10:29:52.473Z,100356.41
2022-08-21T10:32:41.122Z,100362.28
2022-08-21T10:35:14.895Z,100378.84
2022-08-21T10:37:54.170Z,100310.00
2022-08-21T10:40:29.442Z,100378.28
2022-08-21T10:43:18.763Z,100348.44
2022-08-21T10:45:58.924Z,100373.09
2022-08-21T10:48:29.921Z,100371.94
2022-08-21T10:51:07.066Z,100367.63
2022-08-21T10:53:47.614Z,100365.00
2022-08-21T10:56:19.948Z,100370.50
2022-08-21T10:59:00.568Z,100330.03
2022-08-21T11:01:33.338Z,100371.06
2022-08-21T11:04:12.899Z,100358.41
2022-08-21T11:06:47.654Z,100365.88
2022-08-21T11:09:18.411Z,100365.00
2022-08-21T11:11:59.257Z,100316.91
2022-08-21T11:14:50.084Z,100360.34
2022-08-21T11:17:22.107Z,100360.22
2022-08-21T11:19:55.547Z,100341.22
2022-08-21T11:22:29.065Z,100357.50
2022-08-21T11:25:02.661Z,100356.94
2022-08-21T11:27:36.558Z,100363.66
2022-08-21T11:30:08.378Z,100337.31
2022-08-21T11:32:56.720Z,100354.84
2022-08-21T11:35:34.551Z,100355.44
2022-08-21T11:38:24.262Z,100344.22
2022-08-21T11:41:09.060Z,100348.78
2022-08-21T11:43:42.347Z,100342.34
2022-08-21T11:46:23.433Z,100357.06
2022-08-21T11:49:04.376Z,100267.72
2022-08-21T11:51:40.173Z,100349.97
2022-08-21T11:54:25.363Z,100351.16
2022-08-21T11:56:57.644Z,100361.53
2022-08-21T11:59:38.820Z,100356.88
2022-08-21T12:02:14.886Z,100355.44
2022-08-21T12:04:48.214Z,100359.19
2022-08-21T12:07:20.286Z,100350.16
2022-08-21T12:09:57.301Z,100357.53
2022-08-21T12:12:27.934Z,100356.81
2022-08-21T12:15:17.845Z,100339.31
2022-08-21T12:17:57.883Z,100363.47
2022-08-21T12:20:47.417Z,100351.25
2022-08-21T12:23:27.331Z,100350.69
2022-08-21T12:26:05.132Z,100351.47
2022-08-21T12:28:33.764Z,100351.53
2022-08-21T12:31:01.785Z,100347.72
2022-08-21T12:33:35.896Z,100341.94
2022-08-21T12:36:08.369Z,100335.69
2022-08-21T12:38:48.392Z,100305.00
2022-08-21T12:41:19.530Z,100351.22
2022-08-21T12:43:52.981Z,100336.00
2022-08-21T12:46:33.966Z,100277.47
2022-08-21T12:49:10.428Z,100337.13
2022-08-21T12:51:50.901Z,100271.75
2022-08-21T12:54:26.849Z,100318.91
2022-08-21T12:57:00.203Z,100304.88
2022-08-21T12:59:28.572Z,100333.09
2022-08-21T13:01:57.628Z,100326.03
2022-08-21T13:04:37.153Z,100329.50
2022-08-21T13:07:11.913Z,100327.63
2022-08-21T13:09:48.714Z,100320.53
2022-08-21T13:12:19.603Z,100323.28
2022-08-21T13:14:48.973Z,100327.91
2022-08-21T13:17:23.404Z,100325.44
2022-08-21T13:19:57.988Z,100325.22
2022-08-21T13:22:33.971Z,100323.34
2022-08-21T13:25:06.659Z,100321.69
2022-08-21T13:27:36.155Z,100268.19
2022-08-21T13:30:10.907Z,100316.91
2022-08-21T13:32:43.026Z,100313.63
2022-08-21T13:35:19.049Z,100309.88
2022-08-21T13:37:49.543Z,100312.84
2022-08-21T13:40:20.730Z,100312.44
2022-08-21T13:42:50.517Z,100300.66
2022-08-21T13:45:24.141Z,100285.09
2022-08-21T13:47:54.251Z,100307.34
2022-08-21T13:50:27.617Z,100303.22
2022-08-21T13:53:02.734Z,100299.19
2022-08-21T13:55:40.386Z,100282.13
2022-08-21T13:58:09.361Z,100305.19
2022-08-21T14:00:45.859Z,100279.44
2022-08-21T14:03:26.476Z,100307.13
2022-08-21T14:05:56.089Z,100276.66
2022-08-21T14:08:33.364Z,100273.59
2022-08-21T14:11:03.114Z,100307.34
2022-08-21T14:13:38.696Z,100308.00
2022-08-21T14:16:14.642Z,100311.97
2022-08-21T14:18:50.575Z,100297.81
2022-08-21T14:21:32.188Z,100298.72
2022-08-21T14:24:11.221Z,100299.53
2022-08-21T14:26:47.866Z,100283.28
2022-08-21T14:29:18.280Z,100296.31
2022-08-21T14:31:52.017Z,100299.59
2022-08-21T14:34:20.672Z,100296.78
2022-08-21T14:36:52.035Z,100244.94
2022-08-21T14:39:20.097Z,100303.75
2022-08-21T14:41:49.853Z,100309.06
2022-08-21T14:44:20.360Z,100242.38
2022-08-21T14:46:56.396Z,100240.47
2022-08-21T14:49:28.474Z,100297.47
2022-08-21T14:51:59.221Z,100280.16
2022-08-21T14:54:31.451Z,100292.41
2022-08-21T14:57:02.704Z,100297.34
2022-08-21T14:59:31.620Z,100290.22
2022-08-21T15:01:59.571Z,100295.91
2022-08-21T15:04:27.656Z,100277.81
2022-08-21T15:06:57.258Z,100288.78
2022-08-21T15:09:26.045Z,100281.97
2022-08-21T15:11:55.587Z,100294.91
2022-08-21T15:14:26.875Z,100284.88
2022-08-21T15:16:54.919Z,100294.97
2022-08-21T15:19:23.152Z,100288.16
2022-08-21T15:21:51.286Z,100296.63
2022-08-21T15:24:20.758Z,100300.78
2022-08-21T15:26:49.321Z,100287.13
2022-08-21T15:29:22.612Z,100283.94
2022-08-21T15:31:56.898Z,100302.19
2022-08-21T15:34:27.317Z,100295.84
2022-08-21T15:36:57.150Z,100301.47
2022-08-21T15:39:31.013Z,100302.50
2022-08-21T15:42:06.234Z,100294.81
2022-08-21T15:44:40.280Z,100290.44
2022-08-21T15:47:09.118Z,100256.34
2022-08-21T15:49:37.417Z,100292.59
2022-08-21T15:52:05.497Z,100299.13
2022-08-21T15:54:34.948Z,100298.38
2022-08-21T15:57:02.977Z,100294.38
2022-08-21T15:59:34.472Z,100293.09
2022-08-21T16:02:02.648Z,100189.44
2022-08-21T16:04:30.721Z,100293.53
2022-08-21T16:07:04.347Z,100295.66
2022-08-21T16:09:37.257Z,100295.88
2022-08-21T16:12:07.278Z,100265.53
2022-08-21T16:14:37.468Z,100291.13
2022-08-21T16:17:06.800Z,100291.13
2022-08-21T16:19:35.525Z,100302.16
2022-08-21T16:22:03.564Z,100214.63
2022-08-21T16:24:31.570Z,100301.47
2022-08-21T16:27:01.052Z,100301.97
2022-08-21T16:29:35.851Z,100301.75
2022-08-21T16:32:06.933Z,100301.63
2022-08-21T16:34:35.308Z,100202.16
2022-08-21T16:37:03.345Z,100280.53
2022-08-21T16:39:31.855Z,100288.38
2022-08-21T16:42:01.487Z,100303.88
2022-08-21T16:44:30.136Z,100249.63
2022-08-21T16:46:59.501Z,100288.78
2022-08-21T16:49:27.966Z,100274.50
2022-08-21T16:51:55.995Z,100290.72
2022-08-21T16:54:24.137Z,100276.09
2022-08-21T16:56:52.338Z,100281.59
2022-08-21T16:59:24.297Z,100281.97
2022-08-21T17:01:54.525Z,100284.47
2022-08-21T17:04:22.666Z,100283.22
2022-08-21T17:06:50.818Z,100277.06
2022-08-21T17:09:19.570Z,100291.97
2022-08-21T17:11:50.408Z,100289.41
2022-08-21T17:14:20.923Z,100286.84
2022-08-21T17:16:53.420Z,100273.75
2022-08-21T17:19:21.697Z,100289.03
2022-08-21T17:21:50.143Z,100293.50
2022-08-21T17:24:18.081Z,100297.53
2022-08-21T17:26:47.024Z,100295.94
2022-08-21T17:29:16.153Z,100289.94
2022-08-21T17:31:45.580Z,100285.03
2022-08-21T17:34:16.863Z,100295.97
2022-08-21T17:36:44.800Z,100292.81
2022-08-21T17:39:13.968Z,100218.91
2022-08-21T17:41:49.957Z,100295.19
2022-08-21T17:44:24.504Z,100282.81
2022-08-21T17:46:52.498Z,100150.00
2022-08-21T17:49:21.955Z,100299.66
2022-08-21T17:51:50.275Z,100290.41
2022-08-21T17:54:18.250Z,100297.47
2022-08-21T17:56:46.728Z,100301.66
2022-08-21T17:59:15.597Z,100286.06
2022-08-21T18:01:46.876Z,100294.84
2022-08-21T18:04:15.747Z,100298.31
2022-08-21T18:06:45.551Z,100300.69
2022-08-21T18:09:14.721Z,100246.81
2022-08-21T18:11:44.253Z,100305.94
2022-08-21T18:14:13.646Z,100312.97
2022-08-21T18:16:41.872Z,100322.53
2022-08-21T18:19:15.578Z,100316.91
2022-08-21T18:21:45.404Z,100315.91
2022-08-21T18:24:13.603Z,100228.50
2022-08-21T18:26:43.143Z,100284.16
2022-08-21T18:29:16.879Z,100318.59
2022-08-21T18:31:46.358Z,100303.88
2022-08-21T18:34:22.109Z,100306.25
2022-08-21T18:36:51.925Z,100290.44
2022-08-21T18:39:36.047Z,100325.47
2022-08-21T18:42:08.883Z,100327.63
2022-08-21T18:44:37.737Z,100326.75
2022-08-21T18:47:08.250Z,100333.22
2022-08-21T18:49:36.353Z,100335.38
2022-08-21T18:52:06.178Z,100331.91
2022-08-21T18:54:34.263Z,100337.59
2022-08-21T18:57:05.853Z,100342.41
2022-08-21T18:59:37.965Z,100320.00
2022-08-21T19:02:08.703Z,100343.25
2022-08-21T19:04:44.358Z,100352.16
2022-08-21T19:07:14.802Z,100354.94
2022-08-21T19:09:52.967Z,100351.97
2022-08-21T19:12:29.602Z,100352.84
2022-08-21T19:14:57.687Z,100356.16
2022-08-21T19:17:26.941Z,100359.22
2022-08-21T19:19:56.682Z,100372.22
2022-08-21T19:22:26.188Z,100357.34
2022-08-21T19:24:54.514Z,100358.78
2022-08-21T19:27:23.104Z,100361.16
2022-08-21T19:29:51.518Z,100357.34
2022-08-21T19:32:21.324Z,100363.78
2022-08-21T19:34:51.218Z,100361.84
2022-08-21T19:37:20.553Z,100363.44
2022-08-21T19:39:50.524Z,100363.69
2022-08-21T19:42:21.229Z,100367.94
2022-08-21T19:44:53.047Z,100366.47
2022-08-21T19:47:29.474Z,100369.34
2022-08-21T19:50:00.722Z,100358.97
2022-08-21T19:52:32.688Z,100324.63
2022-08-21T19:55:06.652Z,100383.78
2022-08-21T19:57:34.818Z,100376.38
2022-08-21T20:00:03.791Z,100368.13
2022-08-21T20:02:35.742Z,100378.88
2022-08-21T20:05:04.769Z,100358.59
2022-08-21T20:07:33.212Z,100386.38
2022-08-21T20:10:02.254Z,100370.22
2022-08-21T20:12:31.702Z,100379.22
2022-08-21T20:15:00.226Z,100379.00
2022-08-21T20:17:28.438Z,100361.41
2022-08-21T20:19:56.982Z,100332.72
2022-08-21T20:22:25.229Z,100382.97
2022-08-21T20:24:54.433Z,100385.75
2022-08-21T20:27:26.479Z,100383.97
2022-08-21T20:29:57.065Z,100366.16
2022-08-21T20:32:25.051Z,100392.25
2022-08-21T20:34:55.000Z,100387.22
2022-08-21T20:37:36.258Z,100389.31
2022-08-21T20:42:59.034Z,100376.38
2022-08-21T20:45:32.660Z,100388.00
2022-08-21T20:48:05.367Z,100372.31
2022-08-21T20:50:38.553Z,100352.06
2022-08-21T20:53:13.163Z,100392.22
2022-08-21T20:55:46.839Z,100401.34
2022-08-21T20:58:25.395Z,100391.09
2022-08-21T21:01:02.567Z,100395.88
2022-08-21T21:03:36.219Z,100400.72
2022-08-21T21:06:09.104Z,100380.16
2022-08-21T21:11:34.859Z,100383.69
2022-08-21T21:14:12.190Z,100265.53
2022-08-21T21:16:50.728Z,100404.09
2022-08-21T21:19:27.604Z,100342.09
2022-08-21T21:22:01.642Z,100398.63
2022-08-21T21:24:36.669Z,100409.47
2022-08-21T21:27:18.500Z,100231.38
2022-08-21T21:29:51.024Z,100405.41
2022-08-21T21:32:21.655Z,100404.91
2022-08-21T21:34:51.071Z,100406.97
2022-08-21T21:37:26.077Z,100408.50
2022-08-21T21:40:04.586Z,100411.81
2022-08-21T21:42:42.663Z,100409.06
2022-08-21T21:45:24.457Z,100275.34
2022-08-21T21:51:03.156Z,100416.19
2022-08-21T21:53:51.473Z,100415.22
2022-08-21T21:56:29.040Z,100409.22
2022-08-21T22:02:17.037Z,100308.28
2022-08-21T22:04:59.164Z,100360.84
2022-08-21T22:07:37.412Z,100408.88
2022-08-21T22:10:19.634Z,100406.19
2022-08-21T22:13:25.240Z,100399.97
2022-08-21T22:15:54.781Z,100411.69
2022-08-21T22:18:27.697Z,100331.03
2022-08-21T22:21:02.785Z,100415.38
2022-08-21T22:23:36.944Z,100407.81
2022-08-21T22:26:11.018Z,100412.72
2022-08-21T22:28:43.747Z,100406.06
2022-08-21T22:34:17.871Z,100357.09
2022-08-21T22:36:56.220Z,100362.47
2022-08-21T22:39:34.431Z,100414.03
2022-08-21T22:42:07.840Z,100406.19
2022-08-21T22:44:51.666Z,100412.00
2022-08-21T22:47:26.576Z,100309.19
2022-08-21T22:49:58.556Z,100411.28
2022-08-21T22:52:34.367Z,100413.63
2022-08-21T22:55:17.531Z,100401.44
2022-08-21T22:57:46.908Z,100412.16
2022-08-21T23:00:38.190Z,100396.28
2022-08-21T23:03:06.356Z,100406.41
2022-08-21T23:05:44.936Z,100404.00
2022-08-21T23:08:25.227Z,100406.41
2022-08-21T23:10:58.055Z,100403.19
2022-08-21T23:13:26.163Z,100420.28
2022-08-21T23:16:03.930Z,100412.06
2022-08-21T23:18:44.722Z,100409.63
2022-08-21T23:21:19.873Z,100387.19
2022-08-21T23:24:01.567Z,100411.31
2022-08-21T23:26:39.035Z,100371.59
2022-08-21T23:29:24.916Z,100416.19
2022-08-21T23:32:35.591Z,100375.69
2022-08-21T23:35:16.181Z,100399.69
2022-08-21T23:37:53.182Z,100411.41
2022-08-21T23:40:39.154Z,100410.84
2022-08-21T23:43:30.934Z,100395.59
2022-08-21T23:46:04.713Z,100421.91
2022-08-21T23:48:48.551Z,100405.34
2022-08-21T23:51:28.862Z,100401.97
2022-08-21T23:54:12.687Z,100419.28
2022-08-21T23:57:08.267Z,100386.28
2022-08-21T23:59:49.779Z,100399.81
